Junction City, South Dakota
Current Conditions -  °F | °C
As of 10:55 AM on Wednesday 22 Oct 2014 (Local Time) from KLRJ Reporting Station
Broken Clouds Broken Clouds  
Wind Chill: 64°   Ceiling: 7500
Heat Index: 64°   Visibility: 10mi
Dew Point: 48°   Wind: 20mph
Humidity: 56%   Direction: 180°S
Pressure: 30.04"   Gusts: 25mph
Location:  42.7901°N, 96.6907°W
Report Text: KLRJ 221555Z AUTO 18017G22KT 10SM BKN075 18/09 A3004 RMK AO2
Loading
Personal Weather Stations






























Interactive Weather Map
Tropical Storm Tracking
New forecast layout! Learn more

10-Day Weather Forecast

Advertisements
Track Severe Weather on mobile